Time;durP1;ratioP1;P1;durP2;ratioP2;P2;SDS_P1;SDS_P2;PMS_P1;PMS_P2;Temp;Humidity;BMP_temperature;BMP_pressure;BME280_temperature;BME280_humidity;BME280_pressure;Samples;Min_cycle;Max_cycle;Signal;HPM_P1;HPM_P2
2023/06/11 00:01:50;;;;;;;4.50;4.13;;;;;;;22.75;46.18;101612.19;4890098;28;97305;-49
2023/06/11 00:04:19;;;;;;;5.20;4.70;;;;;;;22.67;46.25;101612.13;4891897;28;97899;-49
2023/06/11 00:06:45;;;;;;;8.27;5.00;;;;;;;22.63;46.28;101619.44;4887730;28;97566;-49
2023/06/11 00:09:11;;;;;;;5.20;4.70;;;;;;;22.55;46.21;101613.75;4889294;28;97119;-48
2023/06/11 00:11:41;;;;;;;4.47;4.17;;;;;;;22.51;46.45;101609.78;4890822;28;97186;-49
2023/06/11 00:14:08;;;;;;;6.10;4.67;;;;;;;22.49;46.45;101618.00;4891917;28;97035;-49
2023/06/11 00:16:36;;;;;;;11.23;4.73;;;;;;;22.43;46.47;101618.19;4890335;28;99546;-49
2023/06/11 00:19:03;;;;;;;5.90;4.90;;;;;;;22.36;46.62;101614.03;4892152;28;97029;-49
2023/06/11 00:21:29;;;;;;;5.13;4.67;;;;;;;22.30;46.53;101613.41;4892704;28;96715;-49
2023/06/11 00:23:58;;;;;;;5.93;4.50;;;;;;;22.26;46.66;101615.81;4892582;28;96834;-49
2023/06/11 00:26:25;;;;;;;4.90;4.50;;;;;;;22.23;46.68;101619.75;4890056;28;97443;-49
2023/06/11 00:28:50;;;;;;;5.70;4.90;;;;;;;22.21;46.68;101619.50;4891881;28;99314;-49
2023/06/11 00:31:16;;;;;;;6.07;4.50;;;;;;;22.16;46.70;101619.69;4893630;28;97116;-49
2023/06/11 00:33:41;;;;;;;5.10;4.70;;;;;;;22.08;46.74;101622.41;4890173;28;96930;-49
2023/06/11 00:36:07;;;;;;;5.23;4.80;;;;;;;22.00;46.82;101629.25;4890094;28;97692;-49
2023/06/11 00:38:33;;;;;;;4.60;4.20;;;;;;;21.95;46.73;101625.31;4891066;28;98423;-49
2023/06/11 00:40:58;;;;;;;4.60;4.20;;;;;;;21.90;46.75;101622.66;4891421;28;97332;-49
2023/06/11 00:43:23;;;;;;;4.63;4.27;;;;;;;21.82;46.84;101627.44;4892039;28;97512;-49
2023/06/11 00:45:50;;;;;;;4.27;3.87;;;;;;;21.75;46.77;101625.31;4889770;28;97623;-49
2023/06/11 00:48:19;;;;;;;4.23;3.93;;;;;;;21.68;46.86;101626.75;4894264;28;97270;-49
2023/06/11 00:50:47;;;;;;;4.10;3.80;;;;;;;21.63;46.75;101630.41;4892201;28;96941;-49
2023/06/11 00:53:12;;;;;;;4.13;3.83;;;;;;;21.59;46.87;101627.97;4892683;28;97854;-49
2023/06/11 00:55:38;;;;;;;3.83;3.53;;;;;;;21.59;46.82;101630.00;4890503;28;98481;-49
2023/06/11 00:58:04;;;;;;;5.30;3.90;;;;;;;21.57;46.81;101636.16;4895229;28;97364;-49
2023/06/11 01:00:30;;;;;;;3.47;3.27;;;;;;;21.54;46.78;101634.44;4891162;28;98342;-49
2023/06/11 01:03:02;;;;;;;4.10;3.77;;;;;;;21.54;46.59;101636.50;4895537;28;97196;-49
2023/06/11 01:05:31;;;;;;;3.23;3.03;;;;;;;21.51;46.59;101635.53;4893415;28;96925;-49
2023/06/11 01:07:57;;;;;;;5.17;3.73;;;;;;;21.47;46.49;101635.13;4891476;28;100424;-49
2023/06/11 01:10:23;;;;;;;6.03;3.50;;;;;;;21.44;46.47;101641.06;4891901;28;97125;-49
2023/06/11 01:12:48;;;;;;;4.13;3.73;;;;;;;21.38;46.38;101640.47;4889887;28;97432;-49
2023/06/11 01:15:14;;;;;;;5.40;3.37;;;;;;;21.33;46.44;101641.31;4891512;28;100143;-49
2023/06/11 01:18:00;;;;;;;3.30;3.10;;;;;;;21.30;46.75;101637.56;4892378;28;97658;-49
2023/06/11 01:20:35;;;;;;;3.70;3.40;;;;;;;21.27;46.27;101633.06;4894268;28;97487;-49
2023/06/11 01:23:40;;;;;;;3.60;3.30;;;;;;;21.22;46.84;101639.53;4892620;28;97259;-49
2023/06/11 01:26:40;;;;;;;3.30;3.00;;;;;;;21.19;46.58;101639.84;4892144;28;98888;-49
2023/06/11 01:29:08;;;;;;;7.70;2.90;;;;;;;21.15;46.35;101642.25;4890687;28;96975;-49
2023/06/11 01:31:37;;;;;;;3.47;3.17;;;;;;;21.08;46.10;101643.66;4890638;28;97026;-49
2023/06/11 01:34:04;;;;;;;3.07;2.80;;;;;;;21.05;46.17;101638.41;4890783;28;97394;-49
2023/06/11 01:36:34;;;;;;;3.00;2.73;;;;;;;21.00;46.20;101640.00;4894556;28;97350;-49
2023/06/11 01:39:01;;;;;;;3.50;3.20;;;;;;;20.98;46.26;101639.03;4891360;28;96973;-49
2023/06/11 01:41:27;;;;;;;2.90;2.70;;;;;;;20.96;46.00;101642.38;4892421;28;97336;-49
2023/06/11 01:43:53;;;;;;;3.50;2.40;;;;;;;20.90;46.05;101644.53;4889312;28;97255;-49
2023/06/11 01:46:18;;;;;;;2.40;2.30;;;;;;;20.85;46.15;101639.81;4890595;28;98530;-49
2023/06/11 01:48:43;;;;;;;3.13;2.40;;;;;;;20.81;45.95;101648.53;4892295;28;104794;-49
2023/06/11 01:51:09;;;;;;;2.80;2.43;;;;;;;20.80;46.04;101652.63;4891721;28;96755;-49
2023/06/11 01:53:34;;;;;;;3.60;2.87;;;;;;;20.74;45.79;101654.78;4889943;28;97138;-49
2023/06/11 01:56:00;;;;;;;2.60;2.40;;;;;;;20.72;46.08;101651.78;4893362;28;96799;-49
2023/06/11 01:58:26;;;;;;;2.30;2.10;;;;;;;20.69;45.98;101650.03;4893527;28;98365;-49
2023/06/11 02:00:51;;;;;;;2.87;1.90;;;;;;;20.66;46.03;101650.38;4891157;28;97019;-49
2023/06/11 02:03:17;;;;;;;2.40;2.20;;;;;;;20.63;45.96;101649.41;4892046;28;97104;-48
2023/06/11 02:05:43;;;;;;;2.33;2.13;;;;;;;20.61;45.80;101649.19;4891484;28;97584;-49
2023/06/11 02:08:09;;;;;;;4.50;2.27;;;;;;;20.56;45.92;101655.63;4891857;28;97647;-49
2023/06/11 02:10:35;;;;;;;2.00;1.90;;;;;;;20.51;45.67;101647.38;4889415;28;97595;-49
2023/06/11 02:13:00;;;;;;;2.30;1.93;;;;;;;20.46;45.56;101639.84;4895043;28;97518;-49
2023/06/11 02:15:26;;;;;;;2.60;2.40;;;;;;;20.37;45.77;101643.06;4894377;28;106225;-49
2023/06/11 02:17:51;;;;;;;4.00;2.70;;;;;;;20.33;45.77;101653.81;4888778;28;96770;-49
2023/06/11 02:20:16;;;;;;;4.60;2.47;;;;;;;20.26;45.87;101646.81;4887950;28;103345;-49
2023/06/11 02:22:42;;;;;;;2.43;2.27;;;;;;;20.18;45.94;101643.88;4889748;28;96987;-48
2023/06/11 02:25:08;;;;;;;3.27;2.50;;;;;;;20.18;45.99;101645.94;4892529;28;97598;-49
2023/06/11 02:27:33;;;;;;;4.40;2.10;;;;;;;20.14;45.84;101648.25;4888900;28;97663;-49
2023/06/11 02:29:59;;;;;;;2.60;2.00;;;;;;;20.16;45.57;101648.47;4890607;28;97252;-49
2023/06/11 02:32:25;;;;;;;2.60;2.40;;;;;;;20.13;45.72;101646.78;4893307;28;97158;-49
2023/06/11 02:34:50;;;;;;;1.80;1.70;;;;;;;20.07;45.70;101643.34;4889577;28;97545;-49
2023/06/11 02:37:16;;;;;;;2.03;1.83;;;;;;;20.04;45.58;101641.59;4893307;28;97237;-49
2023/06/11 02:39:41;;;;;;;2.30;2.13;;;;;;;20.01;45.59;101640.63;4891039;28;97481;-49
2023/06/11 02:42:06;;;;;;;2.33;2.13;;;;;;;20.02;45.66;101642.13;4893108;28;97065;-49
2023/06/11 02:44:33;;;;;;;2.50;2.30;;;;;;;20.00;45.69;101641.16;4889490;28;96917;-49
2023/06/11 02:46:58;;;;;;;2.07;1.97;;;;;;;19.99;45.66;101645.22;4890322;28;97349;-49
2023/06/11 02:49:23;;;;;;;1.87;1.67;;;;;;;19.97;45.68;101653.41;4892912;28;97017;-49
2023/06/11 02:51:49;;;;;;;3.90;2.13;;;;;;;19.96;45.60;101654.69;4889544;28;96806;-49
2023/06/11 02:54:15;;;;;;;2.10;2.00;;;;;;;19.94;45.58;101652.41;4889735;28;97192;-49
2023/06/11 02:56:40;;;;;;;2.13;1.93;;;;;;;19.91;45.39;101647.16;4893020;28;97101;-49
2023/06/11 02:59:05;;;;;;;1.90;1.80;;;;;;;19.88;45.57;101651.75;4891068;28;97182;-49
2023/06/11 03:01:31;;;;;;;2.73;2.03;;;;;;;19.85;45.52;101650.06;4888974;28;97748;-49
2023/06/11 03:03:56;;;;;;;3.10;1.80;;;;;;;19.83;45.46;101658.19;4889773;28;97594;-49
2023/06/11 03:06:21;;;;;;;2.77;2.27;;;;;;;19.80;45.50;101655.72;4890644;28;97524;-49
2023/06/11 03:08:47;;;;;;;4.10;2.20;;;;;;;19.75;45.63;101662.91;4890342;28;101680;-49
2023/06/11 03:11:13;;;;;;;1.90;1.73;;;;;;;19.71;45.72;101650.53;4890302;28;97179;-49
2023/06/11 03:13:38;;;;;;;2.10;1.90;;;;;;;19.68;45.48;101652.34;4889692;28;97410;-49
2023/06/11 03:16:04;;;;;;;3.10;1.93;;;;;;;19.66;45.60;101659.75;4889865;28;100915;-49
2023/06/11 03:18:29;;;;;;;3.40;1.97;;;;;;;19.60;45.63;101659.06;4888213;28;97147;-49
2023/06/11 03:20:54;;;;;;;2.93;2.10;;;;;;;19.56;45.62;101658.63;4889263;28;96805;-49
2023/06/11 03:23:20;;;;;;;1.93;1.73;;;;;;;19.55;45.65;101665.53;4910811;28;97978;-49
2023/06/11 03:25:45;;;;;;;5.13;1.87;;;;;;;19.57;45.66;101662.94;4892668;28;108881;-49
2023/06/11 03:28:10;;;;;;;3.00;1.70;;;;;;;19.57;45.68;101660.88;4887157;28;97095;-49
2023/06/11 03:30:36;;;;;;;2.63;1.83;;;;;;;19.58;45.71;101661.66;4889051;28;96996;-49
2023/06/11 03:33:01;;;;;;;2.77;2.00;;;;;;;19.58;45.81;101664.44;4885305;28;104536;-49
2023/06/11 03:35:26;;;;;;;2.67;2.40;;;;;;;19.58;45.71;101667.22;4890080;28;99992;-49
2023/06/11 03:37:52;;;;;;;4.13;2.00;;;;;;;19.56;45.70;101661.44;4889009;28;97242;-49
2023/06/11 03:40:18;;;;;;;4.20;1.83;;;;;;;19.52;45.60;101664.53;4887540;28;102571;-49
2023/06/11 03:42:43;;;;;;;2.30;2.10;;;;;;;19.51;45.65;101668.59;4889977;28;105328;-49
2023/06/11 03:45:09;;;;;;;3.43;2.00;;;;;;;19.46;45.47;101661.09;4892183;28;103813;-49
2023/06/11 03:47:34;;;;;;;2.03;1.90;;;;;;;19.44;45.79;101661.59;4895165;28;96741;-49
2023/06/11 03:49:59;;;;;;;2.90;1.90;;;;;;;19.41;45.68;101664.69;4889576;28;97253;-48
2023/06/11 03:52:25;;;;;;;2.10;1.47;;;;;;;19.40;45.65;101658.34;4889920;28;97135;-49
2023/06/11 03:54:50;;;;;;;1.87;1.50;;;;;;;19.42;45.67;101669.75;4892721;28;97144;-48
2023/06/11 03:57:17;;;;;;;2.47;1.63;;;;;;;19.46;45.74;101663.13;4889087;28;97023;-49
2023/06/11 03:59:43;;;;;;;3.37;2.10;;;;;;;19.46;45.82;101688.22;4891881;28;97088;-49
2023/06/11 04:02:08;;;;;;;5.07;2.10;;;;;;;19.43;45.81;101665.69;4891445;28;97325;-48
2023/06/11 04:04:34;;;;;;;2.80;2.00;;;;;;;19.46;45.86;101663.88;4888582;28;104153;-49
2023/06/11 04:06:59;;;;;;;2.43;2.03;;;;;;;19.49;45.99;101662.78;4909298;28;96989;-49
2023/06/11 04:09:24;;;;;;;3.00;1.67;;;;;;;19.52;45.94;101664.53;4889432;28;96941;-48
2023/06/11 04:11:50;;;;;;;1.97;1.70;;;;;;;19.55;45.66;101665.53;4888691;28;98753;-49
2023/06/11 04:14:15;;;;;;;2.13;1.80;;;;;;;19.56;45.70;101670.56;4890726;28;98015;-49
2023/06/11 04:16:40;;;;;;;3.33;1.67;;;;;;;19.56;45.80;101669.81;4889883;28;96740;-49
2023/06/11 04:19:06;;;;;;;3.43;1.50;;;;;;;19.55;45.88;101669.03;4893059;28;97008;-49
2023/06/11 04:21:31;;;;;;;2.20;1.80;;;;;;;19.52;45.74;101666.56;4887091;28;97511;-49
2023/06/11 04:23:56;;;;;;;6.70;1.90;;;;;;;19.59;45.88;101677.13;4889853;28;97217;-49
2023/06/11 04:26:23;;;;;;;2.37;2.17;;;;;;;19.58;45.83;101679.16;4888563;28;100281;-49
2023/06/11 04:28:49;;;;;;;2.57;1.40;;;;;;;19.63;45.91;101678.34;4889009;28;100119;-49
2023/06/11 04:31:14;;;;;;;2.70;1.60;;;;;;;19.66;45.87;101682.09;4889840;28;96978;-49
2023/06/11 04:33:40;;;;;;;1.67;1.57;;;;;;;19.65;45.87;101675.75;4889156;28;97152;-49
2023/06/11 04:36:07;;;;;;;3.13;1.57;;;;;;;19.70;45.86;101672.09;4889286;28;97147;-49
2023/06/11 04:38:36;;;;;;;1.47;1.37;;;;;;;19.73;45.85;101675.88;4888586;28;97365;-49
2023/06/11 04:41:02;;;;;;;3.20;2.07;;;;;;;19.76;45.90;101670.00;4888241;28;97112;-49
2023/06/11 04:43:33;;;;;;;1.57;1.37;;;;;;;19.79;45.84;101668.91;4887995;28;97311;-49
2023/06/11 04:45:59;;;;;;;2.60;2.37;;;;;;;19.80;45.94;101662.06;4889136;28;96809;-49
2023/06/11 04:48:27;;;;;;;5.23;2.50;;;;;;;19.82;45.78;101667.09;4890820;28;97217;-49
2023/06/11 04:50:53;;;;;;;3.10;1.80;;;;;;;19.80;45.77;101664.84;4891280;28;97421;-49
2023/06/11 04:53:23;;;;;;;3.40;1.80;;;;;;;19.81;45.72;101663.56;4891019;28;97153;-49
2023/06/11 04:55:54;;;;;;;2.37;1.40;;;;;;;19.86;45.92;101664.75;4888166;28;97454;-49
2023/06/11 04:58:21;;;;;;;3.37;2.37;;;;;;;19.92;45.75;101663.38;4890363;28;97092;-49
2023/06/11 05:00:51;;;;;;;2.17;1.97;;;;;;;19.96;45.94;101665.88;4894319;28;97142;-49
2023/06/11 05:03:17;;;;;;;2.07;1.40;;;;;;;19.98;45.96;101652.13;4891507;28;98561;-49
2023/06/11 05:05:49;;;;;;;2.13;1.90;;;;;;;20.05;46.04;101663.41;4889804;28;96749;-49
2023/06/11 05:08:18;;;;;;;1.83;1.73;;;;;;;20.08;45.90;101662.34;4892756;28;97460;-49
2023/06/11 05:10:45;;;;;;;1.90;1.80;;;;;;;20.16;45.63;101665.25;4892813;28;97035;-49
2023/06/11 05:13:11;;;;;;;2.90;1.87;;;;;;;20.21;45.80;101670.03;4891172;28;97681;-49
2023/06/11 05:15:36;;;;;;;1.80;1.70;;;;;;;20.26;45.80;101668.41;4889912;28;97274;-49
2023/06/11 05:18:02;;;;;;;4.57;2.20;;;;;;;20.32;45.68;101669.81;4893055;28;96995;-49
2023/06/11 05:20:28;;;;;;;2.40;1.70;;;;;;;20.37;45.71;101671.78;4890124;28;98614;-49
2023/06/11 05:22:58;;;;;;;3.97;1.67;;;;;;;20.38;45.61;101664.88;4889955;28;98534;-49
2023/06/11 05:25:27;;;;;;;2.37;2.07;;;;;;;20.40;45.77;101664.38;4892279;28;97202;-49
2023/06/11 05:27:54;;;;;;;2.20;2.00;;;;;;;20.45;45.52;101661.44;4892637;28;97426;-49
2023/06/11 05:30:24;;;;;;;1.93;1.83;;;;;;;20.51;45.78;101664.88;4890953;28;97558;-49
2023/06/11 05:32:50;;;;;;;2.10;1.80;;;;;;;20.57;45.46;101673.94;4891964;28;96669;-49
2023/06/11 05:35:15;;;;;;;2.53;1.67;;;;;;;20.61;45.40;101668.78;4892428;28;97737;-49
2023/06/11 05:37:41;;;;;;;5.83;2.23;;;;;;;20.68;45.41;101670.94;4892387;28;97328;-49
2023/06/11 05:40:09;;;;;;;2.23;2.03;;;;;;;20.76;45.44;101668.22;4890710;28;97751;-49
2023/06/11 05:42:35;;;;;;;2.20;1.97;;;;;;;20.82;45.21;101671.66;4892509;28;96751;-49
2023/06/11 05:45:00;;;;;;;2.47;2.27;;;;;;;20.90;45.04;101672.53;4890103;28;97333;-49
2023/06/11 05:47:26;;;;;;;4.03;2.10;;;;;;;21.01;44.74;101677.88;4890612;28;97042;-49
2023/06/11 05:49:51;;;;;;;3.57;2.00;;;;;;;21.10;44.94;101680.25;4888726;28;102180;-49
2023/06/11 05:52:16;;;;;;;2.30;2.07;;;;;;;21.21;44.72;101682.06;4894001;28;97217;-49
2023/06/11 05:54:41;;;;;;;2.40;2.20;;;;;;;21.31;44.60;101677.50;4890706;28;96786;-49
2023/06/11 05:57:17;;;;;;;3.10;1.90;;;;;;;21.37;44.60;101680.94;4892921;28;102822;-49
2023/06/11 05:59:42;;;;;;;6.20;2.70;;;;;;;21.42;44.42;101677.25;4890664;28;97201;-49
2023/06/11 06:02:07;;;;;;;2.50;2.30;;;;;;;21.56;44.31;101687.09;4891637;28;97178;-49
2023/06/11 06:04:33;;;;;;;3.23;2.00;;;;;;;21.60;43.76;101677.06;4888897;28;105746;-49
2023/06/11 06:06:58;;;;;;;2.47;2.27;;;;;;;21.67;44.14;101686.13;4891865;28;97242;-49
2023/06/11 06:09:23;;;;;;;3.73;1.93;;;;;;;21.79;43.96;101687.34;4891369;28;101394;-49
2023/06/11 06:11:49;;;;;;;9.33;2.33;;;;;;;21.89;43.81;101679.97;4887779;28;101941;-49
2023/06/11 06:14:14;;;;;;;1.83;1.73;;;;;;;21.99;43.74;101684.59;4891070;28;97062;-49
2023/06/11 06:16:39;;;;;;;2.33;2.20;;;;;;;22.08;43.59;101692.47;4891023;28;96932;-49
2023/06/11 06:19:05;;;;;;;2.60;2.40;;;;;;;22.14;43.55;101684.72;4891216;28;96841;-49
2023/06/11 06:21:30;;;;;;;2.57;2.30;;;;;;;22.23;43.47;101694.69;4889955;28;97257;-49
2023/06/11 06:23:56;;;;;;;2.63;2.43;;;;;;;22.28;43.29;101688.16;4890770;28;97022;-49
2023/06/11 06:26:22;;;;;;;5.17;2.50;;;;;;;22.33;43.13;101688.03;4892343;28;97176;-49
2023/06/11 06:28:48;;;;;;;2.50;2.30;;;;;;;22.43;42.94;101690.34;4894292;28;96716;-49
2023/06/11 06:31:13;;;;;;;2.50;2.30;;;;;;;22.49;42.70;101686.06;4891343;28;97327;-49
2023/06/11 06:33:39;;;;;;;4.40;2.60;;;;;;;22.54;42.59;101692.84;4889708;28;97098;-49
2023/06/11 06:36:05;;;;;;;3.57;2.40;;;;;;;22.61;42.51;101686.53;4892694;28;96893;-49
2023/06/11 06:38:32;;;;;;;3.27;2.87;;;;;;;22.70;42.57;101686.78;4887750;28;97199;-49
2023/06/11 06:40:57;;;;;;;3.10;2.60;;;;;;;22.79;42.38;101688.31;4891494;28;96920;-49
2023/06/11 06:43:22;;;;;;;2.70;2.20;;;;;;;22.87;42.45;101683.50;4894023;28;104182;-49
2023/06/11 06:45:48;;;;;;;3.50;3.00;;;;;;;22.95;42.17;101681.50;4892725;28;97624;-49
2023/06/11 06:48:13;;;;;;;2.50;2.30;;;;;;;23.05;42.27;101691.66;4891455;28;104514;-49
2023/06/11 06:50:38;;;;;;;6.30;2.40;;;;;;;23.15;42.12;101689.06;4889169;28;97566;-49
2023/06/11 06:53:03;;;;;;;2.50;2.30;;;;;;;23.26;42.10;101690.78;4889235;28;97054;-49
2023/06/11 06:55:29;;;;;;;2.60;2.30;;;;;;;23.36;41.68;101694.59;4891227;28;97002;-49
2023/06/11 06:57:54;;;;;;;2.70;2.50;;;;;;;23.38;41.63;101687.09;4892120;28;96779;-49
2023/06/11 07:00:20;;;;;;;2.87;2.60;;;;;;;23.47;41.37;101695.00;4890129;28;98292;-49
2023/06/11 07:02:45;;;;;;;2.63;2.30;;;;;;;23.58;41.44;101697.47;4889364;28;96725;-49
2023/06/11 07:05:11;;;;;;;5.20;3.00;;;;;;;23.67;41.16;101696.94;4893590;28;97061;-49
2023/06/11 07:07:36;;;;;;;2.83;2.47;;;;;;;23.76;41.08;101701.25;4890452;28;97875;-49
2023/06/11 07:10:02;;;;;;;2.57;2.37;;;;;;;23.83;41.01;101698.44;4887490;28;98460;-49
2023/06/11 07:12:27;;;;;;;3.33;3.03;;;;;;;23.93;40.90;101695.06;4888967;28;97095;-49
2023/06/11 07:14:52;;;;;;;4.80;2.87;;;;;;;24.05;40.35;101694.16;4889815;28;96880;-49
2023/06/11 07:17:20;;;;;;;2.80;2.40;;;;;;;24.17;40.48;101705.78;4890470;28;101752;-49
2023/06/11 07:19:46;;;;;;;3.37;3.07;;;;;;;24.25;40.34;101696.03;4888302;28;97140;-49
2023/06/11 07:22:11;;;;;;;3.33;2.77;;;;;;;24.36;40.13;101706.16;4891615;28;97224;-49
2023/06/11 07:24:37;;;;;;;2.97;2.73;;;;;;;24.47;39.81;101705.75;4890956;28;102964;-49
2023/06/11 07:27:03;;;;;;;4.33;3.60;;;;;;;24.57;39.55;101710.25;4891775;28;97606;-49
2023/06/11 07:29:28;;;;;;;3.10;2.90;;;;;;;24.68;39.51;101706.31;4892318;28;97198;-49
2023/06/11 07:31:54;;;;;;;3.60;3.30;;;;;;;24.80;39.15;101698.22;4888939;28;97116;-49
2023/06/11 07:34:20;;;;;;;2.67;2.47;;;;;;;24.91;39.39;101692.19;4890019;28;97083;-49
2023/06/11 07:36:45;;;;;;;3.50;3.20;;;;;;;25.00;39.05;101695.16;4891363;28;100267;-49
2023/06/11 07:39:11;;;;;;;5.50;3.20;;;;;;;25.07;38.82;101700.00;4889669;28;97697;-49
2023/06/11 07:41:37;;;;;;;4.87;2.90;;;;;;;25.19;38.67;101694.69;4888629;28;97262;-49
2023/06/11 07:44:02;;;;;;;2.93;2.63;;;;;;;25.27;38.60;101703.88;4889125;28;97104;-49
2023/06/11 07:46:27;;;;;;;3.30;2.60;;;;;;;25.36;38.41;101689.16;4924887;28;98331;-49
2023/06/11 07:48:53;;;;;;;6.50;3.00;;;;;;;25.47;37.79;101694.38;4890367;28;97127;-49
2023/06/11 07:51:20;;;;;;;2.70;2.50;;;;;;;25.57;37.98;101694.53;4891283;28;97453;-49
2023/06/11 07:53:46;;;;;;;2.77;2.60;;;;;;;25.67;37.61;101689.75;4888940;28;97330;-49
2023/06/11 07:56:11;;;;;;;5.60;2.20;;;;;;;25.76;37.37;101695.50;4891300;28;97169;-49
2023/06/11 07:58:37;;;;;;;2.47;2.30;;;;;;;25.84;37.07;101701.13;4891067;28;103019;-49
2023/06/11 08:01:02;;;;;;;3.67;2.40;;;;;;;25.92;36.96;101698.97;4876997;28;97509;-49
2023/06/11 08:03:28;;;;;;;2.90;2.70;;;;;;;25.99;36.75;101686.91;4892801;28;98357;-49
2023/06/11 08:05:53;;;;;;;4.53;2.50;;;;;;;26.09;36.64;101696.22;4887412;28;97848;-49
2023/06/11 08:08:18;;;;;;;3.40;2.60;;;;;;;26.17;36.85;101699.72;4890805;28;97591;-49
2023/06/11 08:10:45;;;;;;;3.23;2.93;;;;;;;26.25;36.38;101697.59;4890648;28;97518;-49
2023/06/11 08:13:11;;;;;;;2.47;2.27;;;;;;;26.34;36.24;101691.28;4888918;28;96882;-50
2023/06/11 08:15:36;;;;;;;9.10;2.80;;;;;;;26.43;35.99;101704.75;4889639;28;97550;-49
2023/06/11 08:18:02;;;;;;;5.37;2.47;;;;;;;26.52;35.89;101694.88;4888231;28;97524;-49
2023/06/11 08:20:27;;;;;;;2.70;2.50;;;;;;;26.57;35.65;101693.91;4890748;28;96939;-49
2023/06/11 08:22:52;;;;;;;3.00;2.80;;;;;;;26.67;35.58;101701.13;4888338;28;101974;-49
2023/06/11 08:25:18;;;;;;;3.77;1.90;;;;;;;26.77;35.40;101700.50;4888374;28;100194;-49
2023/06/11 08:27:43;;;;;;;3.00;2.70;;;;;;;26.86;35.34;101700.56;4887999;28;97207;-49
2023/06/11 08:30:09;;;;;;;2.93;2.73;;;;;;;26.97;35.31;101697.25;4889694;28;97145;-49
2023/06/11 08:32:34;;;;;;;2.30;2.20;;;;;;;27.10;35.28;101713.84;4888639;28;97648;-49
2023/06/11 08:35:00;;;;;;;3.20;2.27;;;;;;;27.18;34.70;101708.09;4889582;28;97635;-49
2023/06/11 08:37:25;;;;;;;2.80;2.40;;;;;;;27.25;34.82;101701.59;4892353;28;97482;-49
2023/06/11 08:39:51;;;;;;;3.30;2.63;;;;;;;27.35;34.56;101702.38;4894297;28;97192;-49
2023/06/11 08:42:16;;;;;;;2.63;2.40;;;;;;;27.45;34.54;101698.34;4892176;28;98219;-49
2023/06/11 08:44:42;;;;;;;2.70;2.50;;;;;;;27.54;34.59;101694.06;4893636;28;97922;-49
2023/06/11 08:47:09;;;;;;;2.43;2.23;;;;;;;27.60;34.11;101707.94;4893729;28;100662;-49
2023/06/11 08:49:39;;;;;;;3.07;2.67;;;;;;;27.67;33.23;101701.41;4889537;28;97150;-51
2023/06/11 08:52:05;;;;;;;3.00;2.70;;;;;;;27.72;33.64;101697.56;4889567;28;97120;-49
2023/06/11 08:54:31;;;;;;;4.13;3.00;;;;;;;27.81;33.78;101700.44;4889848;28;98398;-49
2023/06/11 08:56:57;;;;;;;2.77;2.57;;;;;;;28.00;33.61;101703.34;4888098;28;97140;-49
2023/06/11 08:59:23;;;;;;;2.90;2.47;;;;;;;28.12;33.27;101701.47;4889744;28;97468;-49
2023/06/11 09:01:50;;;;;;;4.50;2.70;;;;;;;28.23;33.21;101705.06;4892416;28;97068;-49
2023/06/11 09:04:20;;;;;;;2.97;2.73;;;;;;;28.38;32.76;101701.94;4893854;28;97361;-49
2023/06/11 09:07:04;;;;;;;4.20;2.40;;;;;;;28.46;31.00;101697.66;4892125;28;97731;-49
2023/06/11 09:09:29;;;;;;;3.23;3.03;;;;;;;28.54;32.82;101695.44;4892511;28;97213;-50
2023/06/11 09:11:55;;;;;;;3.07;2.77;;;;;;;28.62;32.96;101696.06;4893299;28;97137;-49
2023/06/11 09:14:21;;;;;;;2.80;2.60;;;;;;;28.63;32.25;101691.91;4892497;28;97650;-49
2023/06/11 09:16:47;;;;;;;3.40;2.60;;;;;;;28.69;32.23;101692.34;4892962;28;96737;-50
2023/06/11 09:19:18;;;;;;;5.13;2.90;;;;;;;28.81;32.31;101696.06;4892214;28;97153;-50
2023/06/11 09:21:55;;;;;;;2.60;2.40;;;;;;;29.04;31.42;101695.59;4891476;28;97279;-50
2023/06/11 09:24:22;;;;;;;2.90;2.33;;;;;;;29.16;31.84;101692.91;4892096;28;97063;-49
2023/06/11 09:26:53;;;;;;;3.90;2.60;;;;;;;29.30;31.60;101696.78;4890237;28;97535;-49
2023/06/11 09:29:19;;;;;;;2.30;2.10;;;;;;;29.41;31.46;101699.75;4894136;28;97040;-50
2023/06/11 09:31:45;;;;;;;1.90;1.80;;;;;;;29.59;31.77;101698.19;4895779;28;96886;-50
2023/06/11 09:34:12;;;;;;;2.27;2.07;;;;;;;29.77;31.61;101690.25;4891441;28;97076;-50
2023/06/11 09:36:38;;;;;;;3.13;2.80;;;;;;;29.89;31.17;101690.31;4891468;28;97317;-50
2023/06/11 09:39:03;;;;;;;3.10;2.30;;;;;;;30.07;31.02;101683.06;4891846;28;97257;-50
2023/06/11 09:41:29;;;;;;;2.20;2.10;;;;;;;30.24;30.28;101686.41;4893109;28;97035;-50
2023/06/11 09:43:54;;;;;;;3.07;2.37;;;;;;;30.42;30.22;101686.16;4891616;28;97506;-50
2023/06/11 09:46:22;;;;;;;3.40;2.30;;;;;;;30.56;29.88;101687.09;4893110;28;97262;-50
2023/06/11 09:48:48;;;;;;;2.50;2.30;;;;;;;30.65;29.43;101695.53;4891701;28;96690;-50
2023/06/11 09:51:14;;;;;;;2.80;2.60;;;;;;;30.78;29.24;101680.75;4894833;28;97343;-50
2023/06/11 09:53:41;;;;;;;2.47;2.27;;;;;;;30.98;28.93;101687.03;4893661;28;97061;-50
2023/06/11 09:56:06;;;;;;;5.87;2.13;;;;;;;31.09;28.75;101687.09;4889597;28;97404;-50
2023/06/11 09:58:33;;;;;;;2.83;2.40;;;;;;;31.20;28.38;101684.88;4891194;28;97179;-49
2023/06/11 10:01:00;;;;;;;2.80;2.60;;;;;;;31.18;28.35;101690.44;4891591;28;96900;-50
2023/06/11 10:03:26;;;;;;;3.97;2.40;;;;;;;31.27;28.06;101686.75;4889921;28;99332;-50
2023/06/11 10:05:52;;;;;;;2.40;2.20;;;;;;;31.30;27.65;101686.25;4892719;28;98071;-49
2023/06/11 10:08:22;;;;;;;2.37;1.90;;;;;;;31.42;27.70;101692.00;4891745;28;97282;-50
2023/06/11 10:10:53;;;;;;;2.40;2.20;;;;;;;31.56;27.28;101684.38;4890777;28;97315;-50
2023/06/11 10:13:33;;;;;;;2.70;2.50;;;;;;;31.68;25.99;101687.94;4892807;28;96988;-50
2023/06/11 10:16:00;;;;;;;2.23;2.03;;;;;;;31.73;27.19;101684.00;4889538;28;96966;-50
2023/06/11 10:18:26;;;;;;;3.93;2.30;;;;;;;31.68;26.80;101688.69;4889745;28;97227;-50
2023/06/11 10:20:53;;;;;;;2.40;2.20;;;;;;;31.71;26.54;101698.84;4894240;28;96852;-49
2023/06/11 10:23:20;;;;;;;2.47;2.27;;;;;;;31.69;26.23;101690.16;4889459;28;96688;-50
2023/06/11 10:25:54;;;;;;;2.57;2.37;;;;;;;31.70;25.83;101680.28;4893748;28;97204;-49
2023/06/11 10:28:19;;;;;;;2.07;1.93;;;;;;;31.78;26.49;101688.59;4891544;28;96747;-49
2023/06/11 10:30:54;;;;;;;2.63;2.30;;;;;;;31.74;24.95;101680.53;4892677;28;97254;-50
2023/06/11 10:33:20;;;;;;;2.20;2.10;;;;;;;31.78;25.74;101674.34;4890892;28;98020;-49
2023/06/11 10:35:46;;;;;;;2.03;1.93;;;;;;;31.81;25.71;101688.09;4892072;28;97298;-50
2023/06/11 10:38:13;;;;;;;2.37;2.17;;;;;;;31.86;25.61;101680.53;4891687;28;97004;-49
2023/06/11 10:40:39;;;;;;;2.10;2.00;;;;;;;31.94;25.46;101661.09;4892807;28;97240;-50
2023/06/11 10:43:19;;;;;;;4.27;2.30;;;;;;;31.88;24.15;101680.66;4891301;28;97660;-50
2023/06/11 10:45:45;;;;;;;1.77;1.67;;;;;;;31.94;25.13;101685.97;4890425;28;97323;-50
2023/06/11 10:48:11;;;;;;;1.77;1.60;;;;;;;31.99;24.96;101687.72;4894587;28;97612;-49
2023/06/11 10:50:37;;;;;;;2.00;1.90;;;;;;;31.99;24.79;101685.63;4890418;28;97284;-50
2023/06/11 10:53:08;;;;;;;2.80;2.10;;;;;;;31.95;24.22;101690.34;4890976;28;97266;-50
2023/06/11 10:55:35;;;;;;;2.50;2.20;;;;;;;31.94;24.89;101671.72;4893408;28;97556;-49
2023/06/11 10:58:01;;;;;;;2.10;2.00;;;;;;;31.98;25.11;101678.44;4890989;28;97120;-49
2023/06/11 11:00:32;;;;;;;1.93;1.83;;;;;;;32.06;24.91;101675.34;4910305;28;97396;-50
2023/06/11 11:02:59;;;;;;;2.40;2.20;;;;;;;32.09;24.97;101683.38;4890823;28;97067;-49
2023/06/11 11:05:25;;;;;;;2.00;1.90;;;;;;;32.19;24.78;101680.41;4892420;28;97723;-49
2023/06/11 11:07:53;;;;;;;2.00;1.90;;;;;;;32.29;24.69;101676.03;4891074;28;97335;-50
2023/06/11 11:10:24;;;;;;;3.97;2.80;;;;;;;32.34;22.89;101677.75;4888015;28;97322;-50
2023/06/11 11:12:49;;;;;;;2.40;2.20;;;;;;;32.38;24.50;101686.53;4887603;28;100933;-50
2023/06/11 11:15:15;;;;;;;2.30;2.13;;;;;;;32.48;24.16;101678.59;4891271;28;97236;-50
2023/06/11 11:17:42;;;;;;;2.57;2.37;;;;;;;32.51;24.11;101662.38;4889114;28;97127;-49
2023/06/11 11:20:08;;;;;;;1.70;1.60;;;;;;;32.47;24.02;101668.59;4890630;28;97250;-49
2023/06/11 11:22:34;;;;;;;2.50;2.30;;;;;;;32.49;23.94;101668.69;4892947;28;97611;-50